createdAt,value
2022-08-17T00:00:00.555Z,66.41
2022-08-17T00:02:27.566Z,66.72
2022-08-17T00:04:55.789Z,67.09
2022-08-17T00:07:23.295Z,66.64
2022-08-17T00:09:50.473Z,67.22
2022-08-17T00:12:40.695Z,67.51
2022-08-17T00:15:06.096Z,67.04
2022-08-17T00:17:38.549Z,66.82
2022-08-17T00:20:06.268Z,67.06
2022-08-17T00:22:46.625Z,67.09
2022-08-17T00:25:17.822Z,66.96
2022-08-17T00:27:44.647Z,67.04
2022-08-17T00:30:12.853Z,66.89
2022-08-17T00:33:23.491Z,66.93
2022-08-17T00:35:33.009Z,67.27
2022-08-17T00:38:00.104Z,67.17
2022-08-17T00:40:27.096Z,67.23
2022-08-17T00:43:22.031Z,67.07
2022-08-17T00:45:49.462Z,66.99
2022-08-17T00:48:29.017Z,66.85
2022-08-17T00:51:00.278Z,66.87
2022-08-17T00:53:30.775Z,67.20
2022-08-17T00:56:01.986Z,66.50
2022-08-17T00:58:36.123Z,66.87
2022-08-17T01:01:05.902Z,66.87
2022-08-17T01:03:34.965Z,67.10
2022-08-17T01:06:04.670Z,67.36
2022-08-17T01:08:32.540Z,67.39
2022-08-17T01:11:02.396Z,66.66
2022-08-17T01:13:35.475Z,67.77
2022-08-17T01:16:20.739Z,67.53
2022-08-17T01:18:52.288Z,67.47
2022-08-17T01:21:44.231Z,67.58
2022-08-17T01:24:11.122Z,68.07
2022-08-17T01:26:39.593Z,67.41
2022-08-17T01:29:07.110Z,67.54
2022-08-17T01:31:42.822Z,67.48
2022-08-17T01:34:12.263Z,67.24
2022-08-17T01:36:42.089Z,67.75
2022-08-17T01:39:16.439Z,68.37
2022-08-17T01:41:46.563Z,67.88
2022-08-17T01:44:16.770Z,67.61
2022-08-17T01:46:43.722Z,67.77
2022-08-17T01:49:12.974Z,67.75
2022-08-17T01:51:40.070Z,67.49
2022-08-17T01:54:11.593Z,67.85
2022-08-17T01:56:41.760Z,68.07
2022-08-17T01:59:09.002Z,67.83
2022-08-17T02:01:37.216Z,67.73
2022-08-17T02:04:06.039Z,68.10
2022-08-17T02:06:53.787Z,68.45
2022-08-17T02:09:29.654Z,68.20
2022-08-17T02:11:59.390Z,68.54
2022-08-17T02:14:27.008Z,68.31
2022-08-17T02:16:54.446Z,68.12
2022-08-17T02:19:22.095Z,67.97
2022-08-17T02:21:52.278Z,68.42
2022-08-17T02:25:00.454Z,68.26
2022-08-17T02:27:15.191Z,68.26
2022-08-17T02:29:42.039Z,68.04
2022-08-17T02:32:25.461Z,68.25
2022-08-17T02:34:55.643Z,68.17
2022-08-17T02:37:22.500Z,68.37
2022-08-17T02:39:49.336Z,68.50
2022-08-17T02:42:16.191Z,68.49
2022-08-17T02:44:43.405Z,68.51
2022-08-17T02:47:11.320Z,68.45
2022-08-17T02:49:38.618Z,68.32
2022-08-17T02:52:07.727Z,68.25
2022-08-17T02:54:41.756Z,68.75
2022-08-17T02:57:10.401Z,68.67
2022-08-17T02:59:38.530Z,68.48
2022-08-17T03:02:07.333Z,68.49
2022-08-17T03:04:35.421Z,68.91
2022-08-17T03:07:03.819Z,69.00
2022-08-17T03:09:31.337Z,68.73
2022-08-17T03:12:11.328Z,68.73
2022-08-17T03:14:42.609Z,69.33
2022-08-17T03:17:11.173Z,69.44
2022-08-17T03:19:44.454Z,69.48
2022-08-17T03:22:35.922Z,69.33
2022-08-17T03:24:58.251Z,69.73
2022-08-17T03:27:25.115Z,69.35
2022-08-17T03:29:51.935Z,69.06
2022-08-17T03:32:20.828Z,69.04
2022-08-17T03:34:48.035Z,69.14
2022-08-17T03:37:15.227Z,68.70
2022-08-17T03:39:43.015Z,68.67
2022-08-17T03:42:31.605Z,68.83
2022-08-17T03:44:59.849Z,69.00
2022-08-17T03:47:45.052Z,68.94
2022-08-17T03:50:30.533Z,69.22
2022-08-17T03:53:16.009Z,69.27
2022-08-17T03:56:01.416Z,69.51
2022-08-17T03:58:28.391Z,69.21
2022-08-17T04:00:55.932Z,69.53
2022-08-17T04:03:22.860Z,69.41
2022-08-17T04:05:49.737Z,69.26
2022-08-17T04:08:16.522Z,69.30
2022-08-17T04:10:45.201Z,68.91
2022-08-17T04:13:12.942Z,69.00
2022-08-17T04:15:40.143Z,68.98
2022-08-17T04:18:07.715Z,69.18
2022-08-17T04:20:38.170Z,69.10
2022-08-17T04:23:11.878Z,68.89
2022-08-17T04:25:48.438Z,69.22
2022-08-17T04:28:16.646Z,68.93
2022-08-17T04:30:45.382Z,69.19
2022-08-17T04:33:18.270Z,69.32
2022-08-17T04:35:51.175Z,69.35
2022-08-17T04:38:21.633Z,69.51
2022-08-17T04:41:07.835Z,69.67
2022-08-17T04:43:37.030Z,69.43
2022-08-17T04:46:10.056Z,69.56
2022-08-17T04:48:43.040Z,69.61
2022-08-17T04:51:15.172Z,69.64
2022-08-17T04:53:54.438Z,69.82
2022-08-17T04:56:22.495Z,69.99
2022-08-17T04:58:51.089Z,69.90
2022-08-17T05:01:24.099Z,69.83
2022-08-17T05:03:56.789Z,69.96
2022-08-17T05:06:23.840Z,69.93
2022-08-17T05:08:50.817Z,69.92
2022-08-17T05:11:17.966Z,69.70
2022-08-17T05:13:44.944Z,69.76
2022-08-17T05:16:12.251Z,69.81
2022-08-17T05:18:39.347Z,69.89
2022-08-17T05:21:07.029Z,69.97
2022-08-17T05:23:42.109Z,69.81
2022-08-17T05:26:25.760Z,70.01
2022-08-17T05:29:00.574Z,69.83
2022-08-17T05:31:30.189Z,70.19
2022-08-17T05:33:57.465Z,70.35
2022-08-17T05:36:41.657Z,70.34
2022-08-17T05:39:17.001Z,70.08
2022-08-17T05:41:46.448Z,70.02
2022-08-17T05:44:13.321Z,70.14
2022-08-17T05:46:43.703Z,70.46
2022-08-17T05:49:23.674Z,70.30
2022-08-17T05:52:08.359Z,71.04
2022-08-17T05:54:47.439Z,70.37
2022-08-17T05:57:53.727Z,70.32
2022-08-17T06:00:36.873Z,70.59
2022-08-17T06:03:19.199Z,70.65
2022-08-17T06:06:13.979Z,70.68
2022-08-17T06:08:58.921Z,70.90
2022-08-17T06:11:35.853Z,70.75
2022-08-17T06:14:16.390Z,70.40
2022-08-17T06:16:47.658Z,70.27
2022-08-17T06:19:28.203Z,70.44
2022-08-17T06:21:55.418Z,70.68
2022-08-17T06:24:58.208Z,70.65
2022-08-17T06:27:53.566Z,70.88
2022-08-17T06:30:41.357Z,70.53
2022-08-17T06:33:24.126Z,70.69
2022-08-17T06:36:19.583Z,70.33
2022-08-17T06:39:00.001Z,70.26
2022-08-17T06:41:57.099Z,70.78
2022-08-17T06:44:47.540Z,70.37
2022-08-17T06:47:27.961Z,70.47
2022-08-17T06:50:08.528Z,70.36
2022-08-17T06:52:47.394Z,70.39
2022-08-17T06:55:21.511Z,70.54
2022-08-17T06:57:54.389Z,70.51
2022-08-17T07:00:26.971Z,70.59
2022-08-17T07:03:12.798Z,70.33
2022-08-17T07:06:08.629Z,70.65
2022-08-17T07:08:55.625Z,70.36
2022-08-17T07:11:37.628Z,70.28
2022-08-17T07:14:27.710Z,70.29
2022-08-17T07:16:57.074Z,69.94
2022-08-17T07:19:27.459Z,69.39
2022-08-17T07:21:57.668Z,69.09
2022-08-17T07:24:42.093Z,69.30
2022-08-17T07:27:18.435Z,69.10
2022-08-17T07:30:10.813Z,69.06
2022-08-17T07:32:58.880Z,68.96
2022-08-17T07:35:41.270Z,68.86
2022-08-17T07:38:25.664Z,68.23
2022-08-17T07:40:58.036Z,68.03
2022-08-17T07:43:29.622Z,67.98
2022-08-17T07:46:25.061Z,67.68
2022-08-17T07:48:55.923Z,67.65
2022-08-17T07:51:25.847Z,67.77
2022-08-17T07:54:04.803Z,67.20
2022-08-17T07:56:48.705Z,66.72
2022-08-17T07:59:23.195Z,66.21
2022-08-17T08:01:57.641Z,65.65
2022-08-17T08:04:59.204Z,65.12
2022-08-17T08:07:39.953Z,65.68
2022-08-17T08:10:25.327Z,64.91
2022-08-17T08:13:01.609Z,65.20
2022-08-17T08:15:40.109Z,64.42
2022-08-17T08:18:54.473Z,65.04
2022-08-17T08:21:36.778Z,64.34
2022-08-17T08:24:18.628Z,64.53
2022-08-17T08:27:07.326Z,64.63
2022-08-17T08:29:53.003Z,64.29
2022-08-17T08:32:37.920Z,63.77
2022-08-17T08:35:13.945Z,63.95
2022-08-17T08:37:48.481Z,63.60
2022-08-17T08:40:36.896Z,63.28
2022-08-17T08:43:23.971Z,63.22
2022-08-17T08:45:53.420Z,63.03
2022-08-17T08:48:56.329Z,62.76
2022-08-17T08:51:52.186Z,62.51
2022-08-17T08:54:46.465Z,62.19
2022-08-17T08:57:25.410Z,61.67
2022-08-17T08:59:58.289Z,60.07
2022-08-17T09:02:41.446Z,59.44
2022-08-17T09:05:30.222Z,59.29
2022-08-17T09:08:16.084Z,58.47
2022-08-17T09:11:13.813Z,57.10
2022-08-17T09:13:54.706Z,56.43
2022-08-17T09:16:30.887Z,56.77
2022-08-17T09:19:08.824Z,56.17
2022-08-17T09:21:55.115Z,56.17
2022-08-17T09:24:41.080Z,56.27
2022-08-17T09:27:15.808Z,55.93
2022-08-17T09:29:48.969Z,55.11
2022-08-17T09:32:28.708Z,54.92
2022-08-17T09:35:01.860Z,54.78
2022-08-17T09:37:50.716Z,54.96
2022-08-17T09:40:24.675Z,55.36
2022-08-17T09:43:30.749Z,55.54
2022-08-17T09:46:11.832Z,55.11
2022-08-17T09:48:55.507Z,54.87
2022-08-17T09:51:30.749Z,55.01
2022-08-17T09:54:14.795Z,54.65
2022-08-17T09:57:05.932Z,54.76
2022-08-17T09:59:53.494Z,54.24
2022-08-17T10:02:41.956Z,54.30
2022-08-17T10:05:18.184Z,54.56
2022-08-17T10:08:00.224Z,54.56
2022-08-17T10:10:43.803Z,54.38
2022-08-17T10:13:33.232Z,53.84
2022-08-17T10:16:45.636Z,52.96
2022-08-17T10:19:39.617Z,52.21
2022-08-17T10:22:51.165Z,52.07
2022-08-17T10:25:54.080Z,52.17
2022-08-17T10:28:29.576Z,51.51
2022-08-17T10:34:18.989Z,50.70
2022-08-17T10:36:52.726Z,49.87
2022-08-17T10:39:52.113Z,48.75
2022-08-17T10:42:33.388Z,47.83
2022-08-17T10:45:32.364Z,47.71
2022-08-17T10:48:06.349Z,47.28
2022-08-17T10:50:51.886Z,46.86
2022-08-17T10:53:33.952Z,45.75
2022-08-17T10:56:17.591Z,45.43
2022-08-17T10:58:54.615Z,44.84
2022-08-17T11:01:33.989Z,45.27
2022-08-17T11:04:09.476Z,45.07
2022-08-17T11:06:39.032Z,43.83
2022-08-17T11:09:24.625Z,44.55
2022-08-17T11:11:51.423Z,43.90
2022-08-17T11:14:36.498Z,44.05
2022-08-17T11:17:24.852Z,44.44
2022-08-17T11:20:38.316Z,44.62
2022-08-17T11:23:35.629Z,44.64
2022-08-17T11:26:08.796Z,43.64
2022-08-17T11:28:48.844Z,44.02
2022-08-17T11:31:40.346Z,43.85
2022-08-17T11:34:18.995Z,43.22
2022-08-17T11:37:10.282Z,43.26
2022-08-17T11:40:24.620Z,42.60
2022-08-17T11:43:13.511Z,41.47
2022-08-17T11:46:22.007Z,41.87
2022-08-17T11:49:39.984Z,41.10
2022-08-17T11:52:32.697Z,40.46
2022-08-17T11:55:17.595Z,39.73
2022-08-17T11:58:14.548Z,38.64
2022-08-17T12:00:50.212Z,38.09
2022-08-17T12:03:54.289Z,37.25
2022-08-17T12:06:30.415Z,36.40
2022-08-17T12:09:12.862Z,35.67
2022-08-17T12:12:12.538Z,34.00
2022-08-17T12:15:11.371Z,32.97
2022-08-17T12:17:42.673Z,31.56
2022-08-17T12:20:15.723Z,31.28
2022-08-17T12:22:59.439Z,30.11
2022-08-17T12:25:49.663Z,29.52
2022-08-17T12:28:25.614Z,28.64
2022-08-17T12:30:53.239Z,27.71
2022-08-17T12:33:27.918Z,27.41
2022-08-17T12:36:07.611Z,27.67
2022-08-17T12:38:37.817Z,26.72
2022-08-17T12:41:36.989Z,26.21
2022-08-17T12:44:06.714Z,25.96
2022-08-17T12:46:55.610Z,26.08
2022-08-17T12:49:30.158Z,25.34
2022-08-17T12:52:19.879Z,25.32
2022-08-17T12:55:00.613Z,25.30
2022-08-17T12:57:49.214Z,24.88
2022-08-17T13:00:22.273Z,24.51
2022-08-17T13:02:53.558Z,24.43
2022-08-17T13:05:38.308Z,24.59
2022-08-17T13:08:13.608Z,24.12
2022-08-17T13:10:40.709Z,25.79
2022-08-17T13:13:41.408Z,29.53
2022-08-17T13:16:17.853Z,31.23
2022-08-17T13:18:46.980Z,32.47
2022-08-17T13:21:19.608Z,34.04
2022-08-17T13:24:05.113Z,35.00
2022-08-17T13:26:32.142Z,36.10
2022-08-17T13:29:00.274Z,36.62
2022-08-17T13:31:30.272Z,37.24
2022-08-17T13:34:29.895Z,38.64
2022-08-17T13:37:29.828Z,39.24
2022-08-17T13:40:19.595Z,39.80
2022-08-17T13:42:54.076Z,40.25
2022-08-17T13:45:36.103Z,41.11
2022-08-17T13:48:06.496Z,41.20
2022-08-17T13:50:33.899Z,41.79
2022-08-17T13:53:00.916Z,41.79
2022-08-17T13:55:30.084Z,42.14
2022-08-17T13:58:03.653Z,42.76
2022-08-17T14:00:36.631Z,42.63
2022-08-17T14:03:05.370Z,42.83
2022-08-17T14:05:33.926Z,42.84
2022-08-17T14:08:06.538Z,42.94
2022-08-17T14:10:36.471Z,42.54
2022-08-17T14:13:03.608Z,43.57
2022-08-17T14:15:54.615Z,43.32
2022-08-17T14:18:19.098Z,43.23
2022-08-17T14:21:08.558Z,43.54
2022-08-17T14:23:36.721Z,43.38
2022-08-17T14:26:03.721Z,43.60
2022-08-17T14:28:30.739Z,43.48
2022-08-17T14:31:00.501Z,43.82
2022-08-17T14:33:28.544Z,43.59
2022-08-17T14:35:56.183Z,43.76
2022-08-17T14:38:23.521Z,43.70
2022-08-17T14:40:50.465Z,43.93
2022-08-17T14:43:18.195Z,44.19
2022-08-17T14:45:45.056Z,43.82
2022-08-17T14:48:12.030Z,44.63
2022-08-17T14:50:42.041Z,44.35
2022-08-17T14:53:12.249Z,44.21
2022-08-17T14:55:40.609Z,44.87
2022-08-17T14:58:09.163Z,44.95
2022-08-17T15:00:37.364Z,44.63
2022-08-17T15:03:04.467Z,45.01
2022-08-17T15:05:35.125Z,45.28
2022-08-17T15:08:03.236Z,44.79
2022-08-17T15:10:30.910Z,44.97
2022-08-17T15:12:58.553Z,45.28
2022-08-17T15:15:26.034Z,45.89
2022-08-17T15:17:53.055Z,46.14
2022-08-17T15:20:24.020Z,45.82
2022-08-17T15:22:55.430Z,45.55
2022-08-17T15:25:24.413Z,45.73
2022-08-17T15:27:51.669Z,45.49
2022-08-17T15:30:18.837Z,45.27
2022-08-17T15:32:51.060Z,45.61
2022-08-17T15:35:27.213Z,45.82
2022-08-17T15:38:06.252Z,45.98
2022-08-17T15:40:36.780Z,46.01
2022-08-17T15:43:11.069Z,45.40
2022-08-17T15:45:38.041Z,45.64
2022-08-17T15:48:05.005Z,45.53
2022-08-17T15:50:31.974Z,45.71
2022-08-17T15:53:00.809Z,45.50
2022-08-17T15:55:30.058Z,45.91
2022-08-17T15:57:57.115Z,45.08
2022-08-17T16:00:24.271Z,45.31
2022-08-17T16:03:46.395Z,45.04
2022-08-17T16:05:38.178Z,44.90
2022-08-17T16:08:07.764Z,44.87
2022-08-17T16:10:35.623Z,45.42
2022-08-17T16:13:04.401Z,45.27
2022-08-17T16:15:31.911Z,45.22
2022-08-17T16:17:59.252Z,45.40
2022-08-17T16:20:26.415Z,45.33
2022-08-17T16:22:54.832Z,45.18
2022-08-17T16:25:50.414Z,45.30
2022-08-17T16:28:17.006Z,45.86
2022-08-17T16:30:43.951Z,45.38
2022-08-17T16:33:12.050Z,45.35
2022-08-17T16:35:39.067Z,45.97
2022-08-17T16:38:07.026Z,46.09
2022-08-17T16:40:35.970Z,46.10
2022-08-17T16:43:03.346Z,46.21
2022-08-17T16:45:36.787Z,46.61
2022-08-17T16:48:04.509Z,46.28
2022-08-17T16:50:32.885Z,46.44
2022-08-17T16:53:10.873Z,46.51
2022-08-17T16:55:38.376Z,46.58
2022-08-17T16:58:06.526Z,46.32
2022-08-17T17:00:34.382Z,46.10
2022-08-17T17:03:19.726Z,46.26
2022-08-17T17:06:01.727Z,46.28
2022-08-17T17:08:38.411Z,46.85
2022-08-17T17:11:37.343Z,46.70
2022-08-17T17:14:09.549Z,46.61
2022-08-17T17:16:55.872Z,46.60
2022-08-17T17:19:35.630Z,47.01
2022-08-17T17:22:07.936Z,46.86
2022-08-17T17:25:01.528Z,46.61
2022-08-17T17:28:06.668Z,47.20
2022-08-17T17:30:45.958Z,46.93
2022-08-17T17:33:34.734Z,46.53
2022-08-17T17:36:07.112Z,46.78
2022-08-17T17:39:06.807Z,47.45
2022-08-17T17:41:37.043Z,47.64
2022-08-17T17:44:11.981Z,47.28
2022-08-17T17:46:42.266Z,47.46
2022-08-17T17:49:10.749Z,47.39
2022-08-17T17:52:06.484Z,47.58
2022-08-17T17:55:27.118Z,47.73
2022-08-17T17:58:32.228Z,47.64
2022-08-17T18:01:24.378Z,48.21
2022-08-17T18:04:18.919Z,48.03
2022-08-17T18:07:02.339Z,48.17
2022-08-17T18:09:41.227Z,48.49
2022-08-17T18:12:35.249Z,48.20
2022-08-17T18:15:21.510Z,48.45
2022-08-17T18:18:40.249Z,48.39
2022-08-17T18:21:19.074Z,48.37
2022-08-17T18:24:07.140Z,48.62
2022-08-17T18:26:39.587Z,48.90
2022-08-17T18:29:40.606Z,49.22
2022-08-17T18:32:19.273Z,49.38
2022-08-17T18:34:49.042Z,49.44
2022-08-17T18:37:37.181Z,49.46
2022-08-17T18:40:21.819Z,49.29
2022-08-17T18:43:00.885Z,49.84
2022-08-17T18:45:40.908Z,49.65
2022-08-17T18:48:18.433Z,49.83
2022-08-17T18:50:45.474Z,49.70
2022-08-17T18:53:37.728Z,49.74
2022-08-17T18:56:16.425Z,49.89
2022-08-17T18:58:50.475Z,50.16
2022-08-17T19:01:21.412Z,50.11
2022-08-17T19:04:34.668Z,49.79
2022-08-17T19:07:07.494Z,50.05
2022-08-17T19:09:38.635Z,50.34
2022-08-17T19:12:10.361Z,50.07
2022-08-17T19:14:37.169Z,50.25
2022-08-17T19:17:18.718Z,50.60
2022-08-17T19:20:44.799Z,50.69
2022-08-17T19:23:39.352Z,51.12
2022-08-17T19:26:53.637Z,51.04
2022-08-17T19:29:22.121Z,50.91
2022-08-17T19:31:49.586Z,51.33
2022-08-17T19:34:33.387Z,51.62
2022-08-17T19:37:09.935Z,51.46
2022-08-17T19:39:59.629Z,51.43
2022-08-17T19:42:47.456Z,51.88
2022-08-17T19:45:32.981Z,51.56
2022-08-17T19:48:16.793Z,51.53
2022-08-17T19:50:47.385Z,51.99
2022-08-17T19:54:01.510Z,51.96
2022-08-17T19:56:44.923Z,52.15
2022-08-17T19:59:49.555Z,52.42
2022-08-17T20:02:48.684Z,52.27
2022-08-17T20:05:18.265Z,52.67
2022-08-17T20:07:53.891Z,52.38
2022-08-17T20:10:29.132Z,52.37
2022-08-17T20:13:01.829Z,52.97
2022-08-17T20:15:31.043Z,53.02
2022-08-17T20:18:01.263Z,53.00
2022-08-17T20:20:37.098Z,53.13
2022-08-17T20:23:09.988Z,53.53
2022-08-17T20:25:48.320Z,53.26
2022-08-17T20:28:15.240Z,53.42
2022-08-17T20:30:43.792Z,53.35
2022-08-17T20:33:29.967Z,53.92
2022-08-17T20:36:03.696Z,53.70
2022-08-17T20:38:46.259Z,53.52
2022-08-17T20:41:22.317Z,53.61
2022-08-17T20:43:55.796Z,53.97
2022-08-17T20:46:38.203Z,53.89
2022-08-17T20:49:11.200Z,53.86
2022-08-17T20:52:00.557Z,53.92
2022-08-17T20:54:50.815Z,54.10
2022-08-17T20:57:32.850Z,54.15
2022-08-17T21:00:14.388Z,54.34
2022-08-17T21:02:49.797Z,54.35
2022-08-17T21:05:34.321Z,54.55
2022-08-17T21:08:16.122Z,54.30
2022-08-17T21:10:46.108Z,54.43
2022-08-17T21:13:14.042Z,54.59
2022-08-17T21:15:42.497Z,54.74
2022-08-17T21:18:18.711Z,54.77
2022-08-17T21:21:00.404Z,55.24
2022-08-17T21:23:53.256Z,55.36
2022-08-17T21:26:50.328Z,55.29
2022-08-17T21:29:31.423Z,55.38
2022-08-17T21:32:00.670Z,55.58
2022-08-17T21:34:44.595Z,55.20
2022-08-17T21:37:21.041Z,55.14
2022-08-17T21:40:01.653Z,55.15
2022-08-17T21:42:32.236Z,55.14
2022-08-17T21:45:20.062Z,54.91
2022-08-17T21:48:11.616Z,54.84
2022-08-17T21:50:41.615Z,54.62
2022-08-17T21:53:12.267Z,54.37
2022-08-17T21:55:39.336Z,54.14
2022-08-17T21:58:28.280Z,53.93
2022-08-17T22:01:20.277Z,53.88
2022-08-17T22:04:00.309Z,53.49
2022-08-17T22:06:38.293Z,54.18
2022-08-17T22:09:43.351Z,53.50
2022-08-17T22:12:15.516Z,52.42
2022-08-17T22:14:52.960Z,52.40
2022-08-17T22:17:30.107Z,52.33
2022-08-17T22:20:17.067Z,51.70
2022-08-17T22:23:05.340Z,51.61
2022-08-17T22:26:00.344Z,51.99
2022-08-17T22:28:47.594Z,51.74
2022-08-17T22:31:17.642Z,51.11
2022-08-17T22:34:04.620Z,51.28
2022-08-17T22:36:33.829Z,51.35
2022-08-17T22:39:22.445Z,51.36
2022-08-17T22:42:01.000Z,51.01
2022-08-17T22:44:36.639Z,51.07
2022-08-17T22:47:15.191Z,50.57
2022-08-17T22:49:53.790Z,50.52
2022-08-17T22:53:01.583Z,50.79
2022-08-17T22:55:49.929Z,50.43
2022-08-17T22:59:02.002Z,50.22
2022-08-17T23:01:34.941Z,50.27
2022-08-17T23:04:07.278Z,50.08
2022-08-17T23:06:36.647Z,50.41
2022-08-17T23:09:06.710Z,50.13
2022-08-17T23:11:49.863Z,50.40
2022-08-17T23:14:20.267Z,50.03
2022-08-17T23:16:47.584Z,50.52
2022-08-17T23:19:17.863Z,50.02
2022-08-17T23:21:45.302Z,49.84
2022-08-17T23:24:21.277Z,49.62
2022-08-17T23:26:48.094Z,49.79
2022-08-17T23:29:15.030Z,49.74
2022-08-17T23:31:42.105Z,49.88
2022-08-17T23:34:12.787Z,49.69
2022-08-17T23:36:39.659Z,49.67
2022-08-17T23:39:07.450Z,49.38
2022-08-17T23:41:38.771Z,49.50
2022-08-17T23:44:06.622Z,49.78
2022-08-17T23:46:34.845Z,49.26
2022-08-17T23:49:01.961Z,49.71
2022-08-17T23:51:34.794Z,49.18
2022-08-17T23:54:12.743Z,49.03
2022-08-17T23:56:46.750Z,49.41
2022-08-17T23:59:15.644Z,49.38
